Time;durP1;ratioP1;P1;durP2;ratioP2;P2;SDS_P1;SDS_P2;PMS_P1;PMS_P2;Temp;Humidity;BMP_temperature;BMP_pressure;BME280_temperature;BME280_humidity;BME280_pressure;Samples;Min_cycle;Max_cycle;Signal;HPM_P1;HPM_P2
2023/07/23 00:01:37;;;;;;;3.13;1.83;;;19.50;76.00;;;;;;4984880;28;20379;-73
2023/07/23 00:04:05;;;;;;;4.63;2.10;;;19.50;76.30;;;;;;4988678;28;20026;-73
2023/07/23 00:06:33;;;;;;;2.97;2.00;;;19.40;76.30;;;;;;4985082;28;20030;-73
2023/07/23 00:08:58;;;;;;;2.85;2.05;;;19.50;76.50;;;;;;4983759;28;20026;-73
2023/07/23 00:11:30;;;;;;;2.97;2.00;;;19.40;76.30;;;;;;4983750;28;20076;-73
2023/07/23 00:13:56;;;;;;;3.55;1.88;;;19.40;76.40;;;;;;4985824;28;20156;-73
2023/07/23 00:16:22;;;;;;;3.28;2.03;;;19.40;76.60;;;;;;4989834;28;20053;-73
2023/07/23 00:18:49;;;;;;;3.67;1.90;;;19.40;76.60;;;;;;4982593;28;20019;-73
2023/07/23 00:21:15;;;;;;;3.42;2.05;;;19.40;76.50;;;;;;4991381;28;20026;-73
2023/07/23 00:23:43;;;;;;;3.28;2.13;;;19.40;76.60;;;;;;4989802;28;20500;-73
2023/07/23 00:26:09;;;;;;;4.85;1.98;;;19.40;76.70;;;;;;4993482;28;20038;-73
2023/07/23 00:28:38;;;;;;;2.70;1.73;;;19.30;76.80;;;;;;4985041;28;20579;-72
2023/07/23 00:31:09;;;;;;;3.45;1.95;;;19.30;76.80;;;;;;4983818;28;20122;-73
2023/07/23 00:33:35;;;;;;;5.45;1.80;;;19.30;76.90;;;;;;4987776;28;20038;-73
2023/07/23 00:36:03;;;;;;;3.17;1.90;;;19.30;77.00;;;;;;4988124;28;20036;-73
2023/07/23 00:38:32;;;;;;;2.80;1.95;;;19.30;77.10;;;;;;4981078;28;20403;-73
2023/07/23 00:41:03;;;;;;;3.63;2.28;;;19.30;77.30;;;;;;4989363;28;20423;-74
2023/07/23 00:43:29;;;;;;;3.30;2.00;;;19.20;77.60;;;;;;4985377;28;20402;-73
2023/07/23 00:45:57;;;;;;;3.15;1.50;;;19.20;77.50;;;;;;4984209;28;20023;-73
2023/07/23 00:48:23;;;;;;;3.28;1.63;;;19.20;77.60;;;;;;4983686;28;20031;-73
2023/07/23 00:50:57;;;;;;;3.75;2.00;;;19.20;77.60;;;;;;4981895;28;20045;-73
2023/07/23 00:53:28;;;;;;;4.15;2.00;;;19.20;78.00;;;;;;4990096;28;20189;-73
2023/07/23 00:55:54;;;;;;;2.78;1.70;;;19.20;77.90;;;;;;4991134;28;20045;-75
2023/07/23 00:58:20;;;;;;;4.80;1.98;;;19.20;78.10;;;;;;4986669;28;20027;-75
2023/07/23 01:00:46;;;;;;;2.83;2.20;;;19.10;78.20;;;;;;4992640;28;20558;-75
2023/07/23 01:03:12;;;;;;;3.58;2.00;;;19.10;78.30;;;;;;4989097;28;20121;-75
2023/07/23 01:05:44;;;;;;;3.30;2.40;;;19.10;78.50;;;;;;4992775;28;20037;-74
2023/07/23 01:08:10;;;;;;;5.88;3.75;;;19.10;79.00;;;;;;4986541;28;20034;-74
2023/07/23 01:10:42;;;;;;;5.30;3.17;;;19.00;80.00;;;;;;4980230;28;20035;-74
2023/07/23 01:13:08;;;;;;;4.85;3.17;;;19.00;81.90;;;;;;4978628;28;20566;-74
2023/07/23 01:15:34;;;;;;;8.85;3.88;;;18.90;81.50;;;;;;4995753;28;20488;-74
2023/07/23 01:18:01;;;;;;;5.18;3.55;;;18.80;82.20;;;;;;4995869;28;20400;-74
2023/07/23 01:20:30;;;;;;;6.13;3.13;;;18.70;82.60;;;;;;4996438;28;20026;-75
2023/07/23 01:22:56;;;;;;;7.45;3.97;;;18.70;82.90;;;;;;4996235;28;20105;-75
2023/07/23 01:25:22;;;;;;;6.85;3.25;;;18.60;83.10;;;;;;5000380;28;20077;-74
2023/07/23 01:27:47;;;;;;;7.45;3.65;;;18.50;83.30;;;;;;4983416;28;20022;-73
2023/07/23 01:30:13;;;;;;;5.10;2.70;;;18.50;83.50;;;;;;4989530;28;20027;-74
2023/07/23 01:32:43;;;;;;;6.35;2.83;;;18.40;83.30;;;;;;4987047;28;20041;-72
2023/07/23 01:35:14;;;;;;;5.10;2.53;;;18.40;82.90;;;;;;4981913;28;20018;-74
2023/07/23 01:37:41;;;;;;;3.83;2.15;;;18.40;82.70;;;;;;4980913;28;20026;-73
2023/07/23 01:40:07;;;;;;;5.05;2.25;;;18.40;82.40;;;;;;4981645;28;20158;-74
2023/07/23 01:42:39;;;;;;;4.45;1.80;;;18.40;82.30;;;;;;4984331;28;20093;-74
2023/07/23 01:45:13;;;;;;;5.00;2.20;;;18.40;82.10;;;;;;4981564;28;20022;-74
2023/07/23 01:47:39;;;;;;;3.13;1.95;;;18.40;81.80;;;;;;4978648;28;20429;-73
2023/07/23 01:50:05;;;;;;;2.60;1.42;;;18.50;81.60;;;;;;4982645;28;20030;-74
2023/07/23 01:52:32;;;;;;;3.63;2.03;;;18.50;81.30;;;;;;4988002;28;20913;-73
2023/07/23 01:55:13;;;;;;;3.83;1.65;;;18.50;81.20;;;;;;4982478;28;20470;-73
2023/07/23 01:57:41;;;;;;;4.55;1.80;;;18.50;81.00;;;;;;4983229;28;20023;-73
2023/07/23 02:00:08;;;;;;;3.45;1.77;;;18.60;81.00;;;;;;4977116;28;20026;-73
2023/07/23 02:02:37;;;;;;;2.65;1.92;;;18.50;80.70;;;;;;4982866;28;20574;-73
2023/07/23 02:05:03;;;;;;;2.55;1.88;;;18.60;80.60;;;;;;4981770;28;20046;-73
2023/07/23 02:07:34;;;;;;;3.80;1.83;;;18.60;80.60;;;;;;4986172;28;20031;-73
2023/07/23 02:10:00;;;;;;;5.97;1.90;;;18.60;80.40;;;;;;4981689;28;20425;-73
2023/07/23 02:12:26;;;;;;;3.40;1.90;;;18.60;80.50;;;;;;4981522;28;20054;-73
2023/07/23 02:14:54;;;;;;;3.80;2.03;;;18.60;80.30;;;;;;4982520;28;20433;-73
2023/07/23 02:17:20;;;;;;;4.68;1.88;;;18.70;80.30;;;;;;4984236;28;20050;-73
2023/07/23 02:19:46;;;;;;;3.60;1.98;;;18.60;80.30;;;;;;4982082;28;20085;-73
2023/07/23 02:22:11;;;;;;;2.92;1.70;;;18.60;80.50;;;;;;4986974;28;20027;-74
2023/07/23 02:24:37;;;;;;;2.97;1.77;;;18.60;80.50;;;;;;4989095;28;20031;-74
2023/07/23 02:27:18;;;;;;;4.47;1.73;;;18.50;80.50;;;;;;4976508;28;20054;-74
2023/07/23 02:29:44;;;;;;;3.00;1.73;;;18.50;81.30;;;;;;4979108;28;20034;-73
2023/07/23 02:32:12;;;;;;;3.55;1.50;;;18.50;80.80;;;;;;4983352;28;20405;-74
2023/07/23 02:34:38;;;;;;;3.17;1.77;;;18.50;81.00;;;;;;4986037;28;20088;-74
2023/07/23 02:37:04;;;;;;;2.67;2.00;;;18.40;81.00;;;;;;4981084;28;20078;-74
2023/07/23 02:39:30;;;;;;;3.33;2.20;;;18.40;81.10;;;;;;4982693;28;20544;-74
2023/07/23 02:42:05;;;;;;;2.65;1.95;;;18.40;81.20;;;;;;4981020;28;20023;-73
2023/07/23 02:44:33;;;;;;;2.85;1.60;;;18.30;81.20;;;;;;4983758;28;20042;-73
2023/07/23 02:46:59;;;;;;;3.10;1.75;;;18.30;81.20;;;;;;4981641;28;20492;-74
2023/07/23 02:49:24;;;;;;;3.17;1.63;;;18.30;81.20;;;;;;4979020;28;20031;-72
2023/07/23 02:51:50;;;;;;;2.92;1.73;;;18.30;81.20;;;;;;4984248;28;20181;-73
2023/07/23 02:54:16;;;;;;;2.13;1.67;;;18.30;81.40;;;;;;4984074;28;20122;-74
2023/07/23 02:56:41;;;;;;;3.65;1.77;;;18.30;81.30;;;;;;4988042;28;20037;-74
2023/07/23 02:59:07;;;;;;;3.67;1.95;;;18.20;81.10;;;;;;4981671;28;20022;-74
2023/07/23 03:01:32;;;;;;;3.88;2.03;;;18.20;81.30;;;;;;4985590;28;20335;-72
2023/07/23 03:03:58;;;;;;;4.28;2.85;;;18.20;81.80;;;;;;4986460;28;20135;-73
2023/07/23 03:06:27;;;;;;;6.03;3.00;;;18.20;83.00;;;;;;4985125;28;20027;-73
2023/07/23 03:08:52;;;;;;;4.90;3.00;;;18.20;84.10;;;;;;4989770;28;20110;-74
2023/07/23 03:11:18;;;;;;;4.70;2.90;;;18.10;84.70;;;;;;4988316;28;20026;-74
2023/07/23 03:13:47;;;;;;;9.57;3.70;;;18.00;85.10;;;;;;4988745;28;20038;-74
2023/07/23 03:16:12;;;;;;;8.80;4.05;;;18.00;85.80;;;;;;4986006;28;20049;-74
2023/07/23 03:18:38;;;;;;;6.88;4.40;;;17.90;86.10;;;;;;4982792;28;20401;-74
2023/07/23 03:21:04;;;;;;;7.70;3.20;;;17.90;86.60;;;;;;4981494;28;20035;-74
2023/07/23 03:23:30;;;;;;;5.60;3.53;;;17.80;86.80;;;;;;4984471;28;20122;-74
2023/07/23 03:25:55;;;;;;;8.32;3.50;;;17.80;87.10;;;;;;4991744;28;20050;-74
2023/07/23 03:28:24;;;;;;;7.30;3.95;;;17.70;87.40;;;;;;4988465;28;20030;-74
2023/07/23 03:30:49;;;;;;;5.60;3.55;;;17.70;87.80;;;;;;4988009;28;20026;-74
2023/07/23 03:33:15;;;;;;;5.32;3.67;;;17.60;88.20;;;;;;4985526;28;20033;-73
2023/07/23 03:35:40;;;;;;;8.68;3.67;;;17.60;88.40;;;;;;4981298;28;20489;-74
2023/07/23 03:38:06;;;;;;;6.18;3.97;;;17.50;88.50;;;;;;4987693;28;20029;-74
2023/07/23 03:40:32;;;;;;;8.10;4.28;;;17.50;88.90;;;;;;4984109;28;20496;-74
2023/07/23 03:43:03;;;;;;;5.93;3.45;;;17.50;89.10;;;;;;4986052;28;20067;-74
2023/07/23 03:45:32;;;;;;;6.15;3.65;;;17.40;89.30;;;;;;4984717;28;21076;-74
2023/07/23 03:48:04;;;;;;;6.60;3.75;;;17.40;89.60;;;;;;4982974;28;20026;-73
2023/07/23 03:50:33;;;;;;;6.65;4.40;;;17.30;89.80;;;;;;4986382;28;20062;-73
2023/07/23 03:52:59;;;;;;;6.30;3.65;;;17.30;90.00;;;;;;4985609;28;20104;-74
2023/07/23 03:55:27;;;;;;;5.57;3.58;;;17.20;90.10;;;;;;4986851;28;20026;-73
2023/07/23 03:57:59;;;;;;;6.70;4.45;;;17.20;90.30;;;;;;4985262;28;20061;-73
2023/07/23 04:00:24;;;;;;;6.45;3.55;;;17.20;90.30;;;;;;4981303;28;20030;-73
2023/07/23 04:02:50;;;;;;;6.28;4.03;;;17.10;90.50;;;;;;4983169;28;20038;-73
2023/07/23 04:05:24;;;;;;;8.38;3.80;;;17.10;90.60;;;;;;4991299;28;20076;-73
2023/07/23 04:07:59;;;;;;;4.70;3.47;;;17.00;90.70;;;;;;4990230;28;20081;-73
2023/07/23 04:10:25;;;;;;;7.65;4.03;;;17.00;90.90;;;;;;4986125;28;20459;-74
2023/07/23 04:12:50;;;;;;;6.57;3.42;;;17.00;90.90;;;;;;4987113;28;20026;-73
2023/07/23 04:15:16;;;;;;;5.97;4.25;;;17.00;90.90;;;;;;4997438;23;20042;-76
2023/07/23 04:17:41;;;;;;;5.32;3.72;;;17.00;91.10;;;;;;5009238;28;20037;-76
2023/07/23 04:20:17;;;;;;;6.68;3.80;;;17.00;91.20;;;;;;5007728;28;20022;-75
2023/07/23 04:22:43;;;;;;;6.13;3.22;;;17.00;91.30;;;;;;5010897;28;20073;-76
2023/07/23 04:25:09;;;;;;;5.88;3.00;;;17.00;91.20;;;;;;5009076;28;20160;-74
2023/07/23 04:27:37;;;;;;;5.93;3.38;;;17.00;91.10;;;;;;5004637;28;20021;-74
2023/07/23 04:30:09;;;;;;;6.68;4.13;;;17.00;91.20;;;;;;5004619;28;20513;-75
2023/07/23 04:32:38;;;;;;;8.55;3.28;;;17.00;91.20;;;;;;5004644;28;20026;-76
2023/07/23 04:35:07;;;;;;;5.95;2.92;;;17.00;91.20;;;;;;5022036;28;20033;-76
2023/07/23 04:37:36;;;;;;;5.65;3.22;;;17.00;91.10;;;;;;5008130;28;20028;-76
2023/07/23 04:40:01;;;;;;;5.28;3.10;;;17.00;91.10;;;;;;5010209;28;20033;-77
2023/07/23 04:42:36;;;;;;;4.63;3.17;;;17.00;91.00;;;;;;5002742;28;20030;-76
2023/07/23 04:45:02;;;;;;;5.80;2.97;;;17.10;91.00;;;;;;5006452;28;20028;-76
2023/07/23 04:47:35;;;;;;;4.57;2.97;;;17.10;91.00;;;;;;5000162;28;20299;-77
2023/07/23 04:50:13;;;;;;;6.43;3.53;;;17.10;91.00;;;;;;5004755;28;20025;-77
2023/07/23 04:52:38;;;;;;;4.78;3.53;;;17.10;91.00;;;;;;5003220;28;20040;-75
2023/07/23 04:55:04;;;;;;;5.28;2.90;;;17.20;91.00;;;;;;5010294;28;20018;-77
2023/07/23 04:57:36;;;;;;;5.70;3.35;;;17.30;91.00;;;;;;5014318;28;20026;-77
2023/07/23 05:00:05;;;;;;;5.43;2.85;;;17.30;90.90;;;;;;5012005;28;20017;-77
2023/07/23 05:02:30;;;;;;;5.07;3.22;;;17.40;90.80;;;;;;5008898;28;20032;-77
2023/07/23 05:05:02;;;;;;;6.28;3.33;;;17.50;90.70;;;;;;5011940;28;20500;-79
2023/07/23 05:07:28;;;;;;;5.82;3.25;;;17.60;90.60;;;;;;5009945;28;20061;-77
2023/07/23 05:09:57;;;;;;;4.82;2.75;;;17.70;90.50;;;;;;5007262;28;20065;-71
2023/07/23 05:12:35;;;;;;;5.22;2.95;;;17.80;90.20;;;;;;4999249;28;20101;-73
2023/07/23 05:15:12;;;;;;;6.03;3.08;;;17.80;89.90;;;;;;5006556;28;20508;-71
2023/07/23 05:17:39;;;;;;;4.03;2.70;;;18.00;89.70;;;;;;4999687;28;20515;-70
2023/07/23 05:20:15;;;;;;;4.72;2.47;;;18.10;90.00;;;;;;5004231;28;20425;-71
2023/07/23 05:22:41;;;;;;;7.90;3.00;;;18.10;88.90;;;;;;5004560;28;20014;-71
2023/07/23 05:25:10;;;;;;;4.65;2.45;;;18.30;88.50;;;;;;5005552;28;20040;-71
2023/07/23 05:27:39;;;;;;;3.67;2.35;;;18.30;87.80;;;;;;4999863;28;20026;-70
2023/07/23 05:30:05;;;;;;;4.22;2.72;;;18.40;87.90;;;;;;5005112;28;20407;-72
2023/07/23 05:32:31;;;;;;;3.85;2.60;;;18.50;88.00;;;;;;5003519;28;20621;-71
2023/07/23 05:35:00;;;;;;;5.38;2.90;;;18.60;87.70;;;;;;5001055;28;20037;-72
2023/07/23 05:37:34;;;;;;;6.80;2.83;;;18.70;87.50;;;;;;5007796;28;20030;-71
2023/07/23 05:40:03;;;;;;;4.60;2.72;;;18.70;87.10;;;;;;5002584;28;20454;-71
2023/07/23 05:42:38;;;;;;;4.32;2.95;;;18.80;87.10;;;;;;5004563;28;20343;-71
2023/07/23 05:45:04;;;;;;;4.85;3.10;;;18.90;86.60;;;;;;5010868;28;20135;-72
2023/07/23 05:47:30;;;;;;;5.82;2.80;;;19.00;86.40;;;;;;5004332;28;20037;-71
2023/07/23 05:50:02;;;;;;;4.22;2.55;;;19.00;86.20;;;;;;5000028;28;20022;-70
2023/07/23 05:52:31;;;;;;;4.75;2.40;;;19.10;85.80;;;;;;4998728;28;20045;-71
2023/07/23 05:54:59;;;;;;;3.72;2.72;;;19.20;85.70;;;;;;5004176;28;20029;-72
2023/07/23 05:57:28;;;;;;;3.80;2.65;;;19.30;85.30;;;;;;5006573;28;20030;-72
2023/07/23 06:00:00;;;;;;;4.43;2.85;;;19.30;84.90;;;;;;5004403;28;20045;-79
2023/07/23 06:02:28;;;;;;;7.78;3.05;;;19.40;85.20;;;;;;5015876;28;20294;-77
2023/07/23 06:04:57;;;;;;;6.60;3.67;;;19.60;84.90;;;;;;5004536;28;20065;-78
2023/07/23 06:07:22;;;;;;;5.28;3.45;;;19.60;84.60;;;;;;5008729;28;20627;-79
2023/07/23 06:09:51;;;;;;;5.22;3.53;;;19.70;84.60;;;;;;5016730;28;20018;-77
2023/07/23 06:12:16;;;;;;;4.68;3.22;;;19.80;84.60;;;;;;5019089;28;20038;-78
2023/07/23 06:14:42;;;;;;;5.00;3.42;;;19.90;84.40;;;;;;5013670;28;20080;-78
2023/07/23 06:17:10;;;;;;;4.28;3.03;;;20.00;84.30;;;;;;5010500;28;20040;-79
2023/07/23 06:19:42;;;;;;;4.70;3.20;;;20.10;83.80;;;;;;5007124;28;20033;-77
2023/07/23 06:22:12;;;;;;;5.22;3.10;;;20.20;84.20;;;;;;5021825;28;20065;-78
2023/07/23 06:24:44;;;;;;;4.57;2.65;;;20.40;83.40;;;;;;5012150;28;20413;-78
2023/07/23 06:27:10;;;;;;;5.40;2.80;;;20.50;83.20;;;;;;5019216;28;20022;-78
2023/07/23 06:29:35;;;;;;;3.33;2.38;;;20.60;83.00;;;;;;5001242;28;20034;-77
2023/07/23 06:32:01;;;;;;;5.20;2.42;;;20.60;82.50;;;;;;5012189;28;20068;-78
2023/07/23 06:34:26;;;;;;;4.40;2.65;;;20.70;82.60;;;;;;5004501;28;20061;-78
2023/07/23 06:36:55;;;;;;;5.97;2.58;;;20.80;82.70;;;;;;5009161;28;20022;-78
2023/07/23 06:39:21;;;;;;;3.70;2.50;;;20.80;82.40;;;;;;5015562;28;22347;-76
2023/07/23 06:41:52;;;;;;;4.93;2.05;;;20.90;82.30;;;;;;5015520;28;20028;-77
2023/07/23 06:44:18;;;;;;;6.40;2.80;;;21.00;82.00;;;;;;5012126;28;20060;-78
2023/07/23 06:46:46;;;;;;;4.00;2.45;;;21.00;81.70;;;;;;5008971;28;20026;-78
2023/07/23 06:49:13;;;;;;;5.63;2.40;;;21.10;81.50;;;;;;5013997;28;20472;-77
2023/07/23 06:51:39;;;;;;;3.42;2.47;;;21.10;81.10;;;;;;5006056;28;20494;-78
2023/07/23 06:54:04;;;;;;;3.40;2.33;;;21.20;81.40;;;;;;5014751;28;20030;-78
2023/07/23 06:56:36;;;;;;;6.65;2.60;;;21.20;81.40;;;;;;5006446;28;20030;-79
2023/07/23 06:59:07;;;;;;;3.20;2.20;;;21.20;81.60;;;;;;5004934;28;20596;-68
2023/07/23 07:01:36;;;;;;;4.45;2.05;;;21.30;82.50;;;;;;5002444;28;20072;-71
2023/07/23 07:04:02;;;;;;;5.32;2.50;;;21.30;82.30;;;;;;5001946;28;20081;-71
2023/07/23 07:06:30;;;;;;;3.45;2.08;;;21.40;82.20;;;;;;5002660;28;20037;-71
2023/07/23 07:09:02;;;;;;;4.30;2.15;;;21.40;82.60;;;;;;5002384;28;20045;-72
2023/07/23 07:11:34;;;;;;;4.00;2.25;;;21.40;82.80;;;;;;5001324;28;20054;-69
2023/07/23 07:14:04;;;;;;;5.03;2.00;;;21.50;82.30;;;;;;5001193;28;20148;-70
2023/07/23 07:16:29;;;;;;;3.88;2.00;;;21.50;82.30;;;;;;5001958;28;20084;-79
2023/07/23 07:19:01;;;;;;;3.08;1.95;;;21.50;82.10;;;;;;5009344;28;20432;-77
2023/07/23 07:21:29;;;;;;;2.08;1.83;;;21.60;82.20;;;;;;5006324;28;20030;-77
2023/07/23 07:23:58;;;;;;;3.60;2.72;;;21.70;82.00;;;;;;5007394;28;20026;-78
2023/07/23 07:26:27;;;;;;;4.30;2.00;;;21.80;82.30;;;;;;5007890;28;20022;-78
2023/07/23 07:28:52;;;;;;;4.50;2.63;;;21.90;81.80;;;;;;5007199;28;20117;-79
2023/07/23 07:31:24;;;;;;;6.63;2.25;;;22.00;81.20;;;;;;5000629;28;20105;-77
2023/07/23 07:33:52;;;;;;;3.03;2.13;;;22.10;81.20;;;;;;5005094;28;20498;-78
2023/07/23 07:36:19;;;;;;;2.88;1.92;;;22.20;80.50;;;;;;5006976;28;20054;-78
2023/07/23 07:38:44;;;;;;;3.88;2.17;;;22.30;80.40;;;;;;5006914;28;20022;-78
2023/07/23 07:41:10;;;;;;;2.55;1.90;;;22.40;80.60;;;;;;5020683;28;20057;-77
2023/07/23 07:43:36;;;;;;;2.55;1.73;;;22.60;78.10;;;;;;5009061;28;21351;-77
2023/07/23 07:46:06;;;;;;;3.15;1.83;;;22.80;76.90;;;;;;5008883;28;20098;-77
2023/07/23 07:48:37;;;;;;;2.58;1.90;;;22.90;76.40;;;;;;5008726;28;20504;-75
2023/07/23 07:51:05;;;;;;;2.20;1.73;;;23.00;75.50;;;;;;5010944;28;20049;-77
2023/07/23 07:53:32;;;;;;;2.00;1.30;;;23.10;74.70;;;;;;5009764;28;20401;-76
2023/07/23 07:55:59;;;;;;;2.35;1.52;;;23.20;74.40;;;;;;5006074;28;20030;-78
2023/07/23 07:58:25;;;;;;;2.17;1.50;;;23.20;74.40;;;;;;5010786;28;20184;-79
2023/07/23 08:00:59;;;;;;;3.83;1.98;;;23.20;74.20;;;;;;5020004;28;20026;-77
2023/07/23 08:03:31;;;;;;;4.00;1.75;;;23.30;74.30;;;;;;5005462;28;20087;-77
2023/07/23 08:06:00;;;;;;;2.30;1.47;;;23.40;74.60;;;;;;5013018;28;20442;-79
2023/07/23 08:08:45;;;;;;;8.15;2.13;;;23.50;74.20;;;;;;5004452;28;20374;-77
2023/07/23 08:11:12;;;;;;;2.13;1.58;;;23.60;74.20;;;;;;5010121;28;20034;-77
2023/07/23 08:13:38;;;;;;;3.65;2.10;;;23.80;74.40;;;;;;5006975;28;20038;-75
2023/07/23 08:16:05;;;;;;;3.55;1.48;;;23.90;73.70;;;;;;5003141;28;20037;-77
2023/07/23 08:18:31;;;;;;;2.50;1.58;;;24.00;73.60;;;;;;5006708;28;20409;-77
2023/07/23 08:20:58;;;;;;;2.38;1.63;;;24.10;73.30;;;;;;5011630;28;20058;-77
2023/07/23 08:23:30;;;;;;;3.00;1.50;;;24.20;73.20;;;;;;5010080;28;20073;-76
2023/07/23 08:25:58;;;;;;;3.55;1.90;;;24.30;73.30;;;;;;5005828;28;20041;-76
2023/07/23 08:28:41;;;;;;;3.42;1.67;;;24.30;72.70;;;;;;5019242;28;20500;-77
2023/07/23 08:31:07;;;;;;;2.67;1.77;;;24.60;72.40;;;;;;5021177;28;20025;-79
2023/07/23 08:33:33;;;;;;;3.33;1.55;;;24.70;71.50;;;;;;5021981;28;20040;-77
2023/07/23 08:36:02;;;;;;;3.28;1.73;;;24.70;71.50;;;;;;5017419;28;20488;-77
2023/07/23 08:38:28;;;;;;;2.78;1.83;;;24.90;71.50;;;;;;5020278;28;20027;-77
2023/07/23 08:41:00;;;;;;;2.47;1.60;;;25.00;71.40;;;;;;5009003;28;20033;-78
2023/07/23 08:43:53;;;;;;;4.00;1.77;;;25.10;71.00;;;;;;5016978;28;20033;-76
2023/07/23 08:46:27;;;;;;;3.00;1.70;;;25.20;70.90;;;;;;5017301;28;20022;-77
2023/07/23 08:49:05;;;;;;;4.03;1.42;;;25.30;70.70;;;;;;5019636;28;20539;-78
2023/07/23 08:51:48;;;;;;;3.97;1.90;;;25.40;70.40;;;;;;5016241;28;20025;-79
2023/07/23 08:54:16;;;;;;;1.67;1.45;;;25.40;70.70;;;;;;5015360;28;20034;-77
2023/07/23 08:56:43;;;;;;;2.90;1.33;;;25.50;70.30;;;;;;5021173;28;20026;-77
2023/07/23 08:59:09;;;;;;;3.08;1.60;;;25.60;70.40;;;;;;5019823;28;20018;-77
2023/07/23 09:01:56;;;;;;;2.72;1.40;;;25.60;70.50;;;;;;5012727;28;20026;-77
2023/07/23 09:04:25;;;;;;;3.58;1.70;;;25.70;71.00;;;;;;5012541;28;20057;-77
2023/07/23 09:06:52;;;;;;;4.15;1.85;;;25.70;70.80;;;;;;5004593;28;20111;-81
2023/07/23 09:09:24;;;;;;;1.95;1.60;;;25.70;71.00;;;;;;5014760;28;20018;-76
2023/07/23 09:12:03;;;;;;;2.80;1.73;;;25.70;70.50;;;;;;5022167;28;20021;-77
2023/07/23 09:14:29;;;;;;;1.85;1.40;;;25.70;70.80;;;;;;5024594;28;20030;-77
2023/07/23 09:16:55;;;;;;;3.15;1.65;;;25.70;71.10;;;;;;5016688;28;20485;-75
2023/07/23 09:19:40;;;;;;;1.90;1.50;;;25.60;71.00;;;;;;5014867;28;20034;-77
2023/07/23 09:22:09;;;;;;;2.90;1.50;;;25.60;71.10;;;;;;5016956;28;20045;-77
2023/07/23 09:24:38;;;;;;;2.53;1.50;;;25.60;70.60;;;;;;5013084;28;20076;-78
2023/07/23 09:27:03;;;;;;;2.25;1.40;;;25.60;70.20;;;;;;5015537;28;20022;-77
2023/07/23 09:29:37;;;;;;;2.20;1.42;;;25.80;70.80;;;;;;5015261;28;20391;-78
2023/07/23 09:32:03;;;;;;;4.70;1.88;;;25.90;70.70;;;;;;5012005;28;20027;-77
2023/07/23 09:34:29;;;;;;;2.28;1.48;;;26.10;70.40;;;;;;5011854;28;20037;-78
2023/07/23 09:36:54;;;;;;;4.20;1.60;;;26.20;70.10;;;;;;5008014;28;20128;-78
2023/07/23 09:39:25;;;;;;;14.90;1.98;;;26.20;70.00;;;;;;5012114;28;20030;-77
2023/07/23 09:41:51;;;;;;;2.90;1.60;;;26.30;69.90;;;;;;5005550;28;20130;-78
2023/07/23 09:44:17;;;;;;;2.08;1.48;;;26.40;69.70;;;;;;5008105;28;20086;-77
2023/07/23 09:46:46;;;;;;;2.33;1.42;;;26.50;69.70;;;;;;5012915;28;20022;-77
2023/07/23 09:49:13;;;;;;;1.63;1.38;;;26.60;69.80;;;;;;5011580;28;20439;-78
2023/07/23 09:51:54;;;;;;;1.63;1.40;;;26.60;69.90;;;;;;5007847;28;20022;-79
2023/07/23 09:54:29;;;;;;;1.77;1.60;;;26.60;69.20;;;;;;5007952;28;20038;-79
2023/07/23 09:56:55;;;;;;;2.00;1.52;;;26.60;68.00;;;;;;5004686;28;20027;-78
2023/07/23 09:59:22;;;;;;;3.33;1.48;;;26.70;68.20;;;;;;5012690;28;20038;-78
2023/07/23 10:01:48;;;;;;;2.47;1.40;;;26.60;68.00;;;;;;5014831;28;20022;-79
2023/07/23 10:04:30;;;;;;;2.17;1.60;;;26.70;67.60;;;;;;5004279;28;20030;-77
2023/07/23 10:07:02;;;;;;;3.40;1.45;;;26.70;67.20;;;;;;5012335;28;20026;-79
2023/07/23 10:09:28;;;;;;;2.40;1.65;;;26.70;66.70;;;;;;5005861;28;20041;-78
2023/07/23 10:12:02;;;;;;;3.67;1.65;;;26.70;66.60;;;;;;5009883;28;20135;-77
2023/07/23 10:14:28;;;;;;;4.10;1.55;;;26.80;65.90;;;;;;5006389;28;20061;-76
2023/07/23 10:16:54;;;;;;;2.58;1.70;;;26.80;65.10;;;;;;5032035;23;20096;-73
2023/07/23 10:19:21;;;;;;;2.92;1.88;;;26.80;65.00;;;;;;5007224;28;20356;-73
2023/07/23 10:21:51;;;;;;;3.17;2.30;;;26.80;64.80;;;;;;5005014;28;20072;-73
2023/07/23 10:24:17;;;;;;;2.35;1.73;;;26.80;64.30;;;;;;5008218;28;20041;-72
2023/07/23 10:26:47;;;;;;;2.55;1.67;;;26.70;64.10;;;;;;4990445;28;20027;-72
2023/07/23 10:29:23;;;;;;;3.00;1.80;;;26.70;63.70;;;;;;4988620;28;20022;-73
2023/07/23 10:31:49;;;;;;;4.38;2.10;;;26.50;63.60;;;;;;4985988;28;20793;-71
2023/07/23 10:34:45;;;;;;;3.38;2.40;;;26.60;63.60;;;;;;4983491;28;20036;-73
2023/07/23 10:37:12;;;;;;;2.53;1.75;;;26.50;63.50;;;;;;4986523;28;20651;-73
2023/07/23 10:40:00;;;;;;;2.83;2.17;;;26.50;63.60;;;;;;4986331;28;20481;-73
2023/07/23 10:42:46;;;;;;;3.85;2.20;;;26.50;63.30;;;;;;4981143;28;20057;-73
2023/07/23 10:45:20;;;;;;;3.85;2.03;;;26.40;63.20;;;;;;4997333;28;20505;-73
2023/07/23 10:48:00;;;;;;;3.72;2.53;;;26.50;62.70;;;;;;4988591;28;20022;-73
2023/07/23 10:50:29;;;;;;;4.80;2.90;;;26.50;62.40;;;;;;4991263;28;20045;-73
2023/07/23 10:53:08;;;;;;;6.00;2.78;;;26.50;62.30;;;;;;4982076;28;20015;-72
2023/07/23 10:55:47;;;;;;;4.13;2.20;;;26.50;62.70;;;;;;4985594;28;20026;-70
2023/07/23 10:58:14;;;;;;;2.50;2.20;;;26.50;62.70;;;;;;4987996;28;20098;-71
2023/07/23 11:00:52;;;;;;;4.07;2.08;;;26.60;62.80;;;;;;4994327;28;20164;-70
2023/07/23 11:03:19;;;;;;;4.43;3.03;;;26.80;62.90;;;;;;4985817;28;20042;-70
2023/07/23 11:05:49;;;;;;;4.65;2.92;;;26.90;62.40;;;;;;4986019;28;20528;-71
2023/07/23 11:08:26;;;;;;;4.47;2.80;;;27.10;61.90;;;;;;4990378;28;20023;-70
2023/07/23 11:11:00;;;;;;;5.35;3.22;;;27.20;61.70;;;;;;4984237;28;20019;-71
2023/07/23 11:13:32;;;;;;;3.85;2.70;;;27.30;60.60;;;;;;4997276;28;20030;-70
2023/07/23 11:15:59;;;;;;;6.93;3.03;;;27.30;59.10;;;;;;4994943;28;20033;-71
2023/07/23 11:18:28;;;;;;;3.90;2.75;;;27.40;59.00;;;;;;4990364;28;20038;-71
2023/07/23 11:20:54;;;;;;;5.22;2.92;;;27.50;58.80;;;;;;4993452;28;20026;-71
2023/07/23 11:23:23;;;;;;;6.07;2.90;;;27.50;58.70;;;;;;4995703;28;20053;-72
2023/07/23 11:25:50;;;;;;;4.28;2.80;;;27.50;58.40;;;;;;4996680;28;20065;-72
2023/07/23 11:28:20;;;;;;;3.30;2.88;;;27.50;58.60;;;;;;4999746;28;20027;-72
2023/07/23 11:30:49;;;;;;;3.97;2.47;;;27.50;58.40;;;;;;4994647;28;20030;-71
2023/07/23 11:33:22;;;;;;;3.75;2.70;;;27.40;59.40;;;;;;4995131;28;20500;-72
2023/07/23 11:35:49;;;;;;;4.68;2.40;;;27.40;60.00;;;;;;4993586;28;20031;-72
2023/07/23 11:38:15;;;;;;;5.07;2.72;;;27.40;59.50;;;;;;4995239;28;20037;-72
2023/07/23 11:40:42;;;;;;;3.67;2.65;;;27.40;59.50;;;;;;4989538;28;20027;-72
2023/07/23 11:43:09;;;;;;;3.38;2.60;;;27.40;58.90;;;;;;4989730;28;20521;-72
2023/07/23 11:45:50;;;;;;;3.60;2.33;;;27.50;59.60;;;;;;4994750;28;20117;-73
2023/07/23 11:48:18;;;;;;;8.90;2.72;;;27.60;59.20;;;;;;4994551;28;20023;-72
2023/07/23 11:50:48;;;;;;;3.28;2.17;;;27.70;58.40;;;;;;4991502;28;20026;-72
2023/07/23 11:53:29;;;;;;;3.22;2.45;;;27.80;58.30;;;;;;5000418;28;20089;-72
2023/07/23 11:56:14;;;;;;;4.05;2.60;;;27.90;58.50;;;;;;4994494;28;20425;-72
2023/07/23 11:58:41;;;;;;;6.57;2.88;;;28.00;58.50;;;;;;4994849;28;20085;-73
2023/07/23 12:01:08;;;;;;;3.15;2.30;;;28.10;56.50;;;;;;4992179;28;20073;-73
2023/07/23 12:03:40;;;;;;;4.03;2.67;;;28.20;57.60;;;;;;4989453;28;20030;-72
2023/07/23 12:06:06;;;;;;;4.05;2.35;;;28.20;58.10;;;;;;4991245;28;20102;-73
2023/07/23 12:08:32;;;;;;;5.82;2.08;;;28.20;57.80;;;;;;4993762;28;20476;-72
2023/07/23 12:10:58;;;;;;;4.22;2.90;;;28.20;58.00;;;;;;4989058;28;20444;-72
2023/07/23 12:13:26;;;;;;;3.45;2.20;;;28.30;58.60;;;;;;4997254;28;20059;-72
2023/07/23 12:15:56;;;;;;;2.88;2.13;;;28.40;56.80;;;;;;4990911;28;20449;-73
2023/07/23 12:18:22;;;;;;;3.63;2.20;;;28.40;56.20;;;;;;4991016;28;20153;-72
2023/07/23 12:20:47;;;;;;;4.28;2.72;;;28.50;55.40;;;;;;4993537;28;20509;-71
2023/07/23 12:23:20;;;;;;;5.03;2.75;;;28.50;55.30;;;;;;4996350;28;20038;-72
2023/07/23 12:25:49;;;;;;;4.78;2.45;;;28.50;55.70;;;;;;4993567;28;20032;-72
2023/07/23 12:28:15;;;;;;;3.58;2.25;;;28.50;56.00;;;;;;4994300;28;20083;-73
2023/07/23 12:30:44;;;;;;;3.00;2.50;;;28.50;55.10;;;;;;4989118;28;20053;-71
2023/07/23 12:33:09;;;;;;;3.33;2.13;;;28.40;54.10;;;;;;4990380;28;20105;-71
2023/07/23 12:35:35;;;;;;;4.97;2.35;;;28.40;54.50;;;;;;4984413;28;20118;-72
2023/07/23 12:38:01;;;;;;;3.10;2.10;;;28.30;53.90;;;;;;4989413;28;20088;-71
2023/07/23 12:40:26;;;;;;;4.05;2.20;;;28.20;54.00;;;;;;4986751;28;20037;-72
2023/07/23 12:42:52;;;;;;;3.72;2.17;;;28.10;54.60;;;;;;4989045;28;20027;-72
2023/07/23 12:45:18;;;;;;;5.10;2.20;;;28.00;55.00;;;;;;4986836;28;20027;-72
2023/07/23 12:47:43;;;;;;;5.00;2.20;;;28.00;54.70;;;;;;4983784;28;20456;-72
2023/07/23 12:50:09;;;;;;;5.68;2.75;;;28.00;54.40;;;;;;4988920;28;20085;-72
2023/07/23 12:52:35;;;;;;;5.45;2.28;;;27.90;54.50;;;;;;4987913;28;20109;-73
2023/07/23 12:55:02;;;;;;;4.50;2.15;;;28.00;54.60;;;;;;4984601;28;20062;-72
2023/07/23 12:57:28;;;;;;;3.72;2.50;;;28.00;54.80;;;;;;4988389;28;20053;-72